sensor_id;sensor_type;location;lat;lon;timestamp;P1;durP1;ratioP1;P2;durP2;ratioP2
77322;SDS011;66384;51.052;9.850;2023-09-19T00:01:24;3.20;;;1.70;;
77322;SDS011;66384;51.052;9.850;2023-09-19T00:03:56;5.80;;;2.00;;
77322;SDS011;66384;51.052;9.850;2023-09-19T00:06:29;2.30;;;1.60;;
77322;SDS011;66384;51.052;9.850;2023-09-19T00:09:00;2.40;;;1.60;;
77322;SDS011;66384;51.052;9.850;2023-09-19T00:11:32;2.70;;;1.80;;
77322;SDS011;66384;51.052;9.850;2023-09-19T00:14:04;2.90;;;1.60;;
77322;SDS011;66384;51.052;9.850;2023-09-19T00:16:37;2.50;;;1.60;;
77322;SDS011;66384;51.052;9.850;2023-09-19T00:19:10;2.80;;;1.40;;
77322;SDS011;66384;51.052;9.850;2023-09-19T00:21:43;3.20;;;1.70;;
77322;SDS011;66384;51.052;9.850;2023-09-19T00:24:15;4.30;;;1.60;;
77322;SDS011;66384;51.052;9.850;2023-09-19T00:26:47;5.10;;;2.10;;
77322;SDS011;66384;51.052;9.850;2023-09-19T00:29:18;2.90;;;2.00;;
77322;SDS011;66384;51.052;9.850;2023-09-19T00:31:52;2.40;;;1.70;;
77322;SDS011;66384;51.052;9.850;2023-09-19T00:34:23;5.30;;;1.90;;
77322;SDS011;66384;51.052;9.850;2023-09-19T00:36:55;2.90;;;1.60;;
77322;SDS011;66384;51.052;9.850;2023-09-19T00:39:28;2.20;;;1.50;;
77322;SDS011;66384;51.052;9.850;2023-09-19T00:42:00;3.30;;;1.60;;
77322;SDS011;66384;51.052;9.850;2023-09-19T00:44:33;4.20;;;1.80;;
77322;SDS011;66384;51.052;9.850;2023-09-19T00:47:06;3.40;;;1.60;;
77322;SDS011;66384;51.052;9.850;2023-09-19T00:49:38;4.10;;;1.80;;
77322;SDS011;66384;51.052;9.850;2023-09-19T00:52:11;3.50;;;1.50;;
77322;SDS011;66384;51.052;9.850;2023-09-19T00:54:43;2.90;;;1.70;;
77322;SDS011;66384;51.052;9.850;2023-09-19T00:57:15;2.50;;;1.70;;
77322;SDS011;66384;51.052;9.850;2023-09-19T00:59:47;3.60;;;1.80;;
77322;SDS011;66384;51.052;9.850;2023-09-19T01:02:23;5.10;;;1.50;;
77322;SDS011;66384;51.052;9.850;2023-09-19T01:04:57;2.50;;;1.40;;
77322;SDS011;66384;51.052;9.850;2023-09-19T01:07:29;3.20;;;2.10;;
77322;SDS011;66384;51.052;9.850;2023-09-19T01:10:02;2.20;;;1.60;;
77322;SDS011;66384;51.052;9.850;2023-09-19T01:12:41;2.60;;;1.80;;
77322;SDS011;66384;51.052;9.850;2023-09-19T01:15:21;2.30;;;1.50;;
77322;SDS011;66384;51.052;9.850;2023-09-19T01:18:00;2.70;;;1.50;;
77322;SDS011;66384;51.052;9.850;2023-09-19T01:20:41;2.30;;;1.60;;
77322;SDS011;66384;51.052;9.850;2023-09-19T01:23:25;1.80;;;1.30;;
77322;SDS011;66384;51.052;9.850;2023-09-19T01:26:10;4.10;;;1.90;;
77322;SDS011;66384;51.052;9.850;2023-09-19T01:29:12;2.60;;;1.80;;
77322;SDS011;66384;51.052;9.850;2023-09-19T01:31:58;2.30;;;1.60;;
77322;SDS011;66384;51.052;9.850;2023-09-19T01:34:44;3.00;;;1.60;;
77322;SDS011;66384;51.052;9.850;2023-09-19T01:37:17;2.60;;;1.50;;
77322;SDS011;66384;51.052;9.850;2023-09-19T01:39:55;2.90;;;1.90;;
77322;SDS011;66384;51.052;9.850;2023-09-19T01:42:39;3.20;;;1.70;;
77322;SDS011;66384;51.052;9.850;2023-09-19T01:45:16;4.20;;;1.70;;
77322;SDS011;66384;51.052;9.850;2023-09-19T01:47:54;2.90;;;1.70;;
77322;SDS011;66384;51.052;9.850;2023-09-19T01:50:30;3.20;;;1.70;;
77322;SDS011;66384;51.052;9.850;2023-09-19T01:53:06;2.60;;;1.80;;
77322;SDS011;66384;51.052;9.850;2023-09-19T01:55:45;3.00;;;1.70;;
77322;SDS011;66384;51.052;9.850;2023-09-19T01:58:22;3.00;;;2.00;;
77322;SDS011;66384;51.052;9.850;2023-09-19T02:01:00;2.30;;;1.40;;
77322;SDS011;66384;51.052;9.850;2023-09-19T02:03:34;4.70;;;1.70;;
77322;SDS011;66384;51.052;9.850;2023-09-19T02:06:08;3.80;;;1.70;;
77322;SDS011;66384;51.052;9.850;2023-09-19T02:08:46;2.20;;;1.40;;
77322;SDS011;66384;51.052;9.850;2023-09-19T02:11:18;2.30;;;1.40;;
77322;SDS011;66384;51.052;9.850;2023-09-19T02:13:50;4.30;;;1.60;;
77322;SDS011;66384;51.052;9.850;2023-09-19T02:16:23;4.00;;;1.70;;
77322;SDS011;66384;51.052;9.850;2023-09-19T02:18:55;3.30;;;1.80;;
77322;SDS011;66384;51.052;9.850;2023-09-19T02:21:28;2.60;;;1.40;;
77322;SDS011;66384;51.052;9.850;2023-09-19T02:24:00;2.60;;;1.50;;
77322;SDS011;66384;51.052;9.850;2023-09-19T02:26:32;3.20;;;1.60;;
77322;SDS011;66384;51.052;9.850;2023-09-19T02:29:04;3.90;;;1.60;;
77322;SDS011;66384;51.052;9.850;2023-09-19T02:31:36;2.30;;;1.10;;
77322;SDS011;66384;51.052;9.850;2023-09-19T02:34:08;2.60;;;1.20;;
77322;SDS011;66384;51.052;9.850;2023-09-19T02:36:40;3.80;;;1.70;;
77322;SDS011;66384;51.052;9.850;2023-09-19T02:39:13;5.70;;;1.60;;
77322;SDS011;66384;51.052;9.850;2023-09-19T02:41:44;2.80;;;2.20;;
77322;SDS011;66384;51.052;9.850;2023-09-19T02:44:16;3.40;;;1.80;;
77322;SDS011;66384;51.052;9.850;2023-09-19T02:46:48;3.00;;;1.70;;
77322;SDS011;66384;51.052;9.850;2023-09-19T02:49:20;2.90;;;1.90;;
77322;SDS011;66384;51.052;9.850;2023-09-19T02:51:52;1.80;;;1.30;;
77322;SDS011;66384;51.052;9.850;2023-09-19T02:54:24;2.50;;;1.40;;
77322;SDS011;66384;51.052;9.850;2023-09-19T02:56:55;3.70;;;1.60;;
77322;SDS011;66384;51.052;9.850;2023-09-19T02:59:28;2.10;;;1.20;;
77322;SDS011;66384;51.052;9.850;2023-09-19T03:02:01;3.30;;;2.00;;
77322;SDS011;66384;51.052;9.850;2023-09-19T03:04:33;3.50;;;1.90;;
77322;SDS011;66384;51.052;9.850;2023-09-19T03:07:06;3.80;;;2.20;;
77322;SDS011;66384;51.052;9.850;2023-09-19T03:09:40;2.30;;;1.60;;
77322;SDS011;66384;51.052;9.850;2023-09-19T03:12:12;4.10;;;1.80;;
77322;SDS011;66384;51.052;9.850;2023-09-19T03:14:44;2.60;;;1.80;;
77322;SDS011;66384;51.052;9.850;2023-09-19T03:17:16;4.80;;;1.60;;
77322;SDS011;66384;51.052;9.850;2023-09-19T03:19:48;2.70;;;1.50;;
77322;SDS011;66384;51.052;9.850;2023-09-19T03:22:20;3.10;;;2.00;;
77322;SDS011;66384;51.052;9.850;2023-09-19T03:24:53;4.20;;;1.90;;
77322;SDS011;66384;51.052;9.850;2023-09-19T03:27:25;3.10;;;1.60;;
77322;SDS011;66384;51.052;9.850;2023-09-19T03:29:56;4.60;;;1.90;;
77322;SDS011;66384;51.052;9.850;2023-09-19T03:32:28;3.90;;;1.80;;
77322;SDS011;66384;51.052;9.850;2023-09-19T03:35:00;4.50;;;1.60;;
77322;SDS011;66384;51.052;9.850;2023-09-19T03:37:33;4.90;;;2.00;;
77322;SDS011;66384;51.052;9.850;2023-09-19T03:40:06;14.30;;;2.30;;
77322;SDS011;66384;51.052;9.850;2023-09-19T03:42:39;4.30;;;1.70;;
77322;SDS011;66384;51.052;9.850;2023-09-19T03:45:11;3.90;;;1.70;;
77322;SDS011;66384;51.052;9.850;2023-09-19T03:47:44;4.50;;;1.70;;
77322;SDS011;66384;51.052;9.850;2023-09-19T03:50:17;3.10;;;1.70;;
77322;SDS011;66384;51.052;9.850;2023-09-19T03:52:48;5.40;;;1.70;;
77322;SDS011;66384;51.052;9.850;2023-09-19T03:55:20;3.50;;;1.60;;
77322;SDS011;66384;51.052;9.850;2023-09-19T03:57:51;5.30;;;1.50;;
77322;SDS011;66384;51.052;9.850;2023-09-19T04:00:23;3.90;;;1.50;;
77322;SDS011;66384;51.052;9.850;2023-09-19T04:02:55;5.20;;;1.90;;
77322;SDS011;66384;51.052;9.850;2023-09-19T04:05:27;9.30;;;1.80;;
77322;SDS011;66384;51.052;9.850;2023-09-19T04:07:59;3.70;;;1.40;;
77322;SDS011;66384;51.052;9.850;2023-09-19T04:10:30;4.10;;;1.60;;
77322;SDS011;66384;51.052;9.850;2023-09-19T04:13:02;3.90;;;1.50;;
77322;SDS011;66384;51.052;9.850;2023-09-19T04:15:36;2.90;;;1.70;;
77322;SDS011;66384;51.052;9.850;2023-09-19T04:18:09;3.60;;;1.50;;
77322;SDS011;66384;51.052;9.850;2023-09-19T04:20:41;3.40;;;1.60;;
77322;SDS011;66384;51.052;9.850;2023-09-19T04:23:17;3.00;;;1.50;;
77322;SDS011;66384;51.052;9.850;2023-09-19T04:25:50;3.40;;;1.40;;
77322;SDS011;66384;51.052;9.850;2023-09-19T04:28:21;3.20;;;1.60;;
77322;SDS011;66384;51.052;9.850;2023-09-19T04:30:53;3.20;;;2.00;;
77322;SDS011;66384;51.052;9.850;2023-09-19T04:33:25;3.30;;;1.70;;
77322;SDS011;66384;51.052;9.850;2023-09-19T04:35:57;2.80;;;1.80;;
77322;SDS011;66384;51.052;9.850;2023-09-19T04:38:42;2.20;;;1.70;;
77322;SDS011;66384;51.052;9.850;2023-09-19T04:41:14;4.70;;;1.70;;
77322;SDS011;66384;51.052;9.850;2023-09-19T04:43:46;4.40;;;1.80;;
77322;SDS011;66384;51.052;9.850;2023-09-19T04:46:19;3.10;;;1.60;;
77322;SDS011;66384;51.052;9.850;2023-09-19T04:48:51;2.90;;;1.40;;
77322;SDS011;66384;51.052;9.850;2023-09-19T04:51:22;2.50;;;1.70;;
77322;SDS011;66384;51.052;9.850;2023-09-19T04:53:55;3.00;;;1.60;;
77322;SDS011;66384;51.052;9.850;2023-09-19T04:56:26;2.20;;;1.60;;
77322;SDS011;66384;51.052;9.850;2023-09-19T04:58:58;3.20;;;1.60;;
77322;SDS011;66384;51.052;9.850;2023-09-19T05:01:30;4.20;;;1.60;;
77322;SDS011;66384;51.052;9.850;2023-09-19T05:04:02;5.30;;;1.90;;
77322;SDS011;66384;51.052;9.850;2023-09-19T05:06:35;3.50;;;1.70;;
77322;SDS011;66384;51.052;9.850;2023-09-19T05:09:06;4.50;;;1.80;;
77322;SDS011;66384;51.052;9.850;2023-09-19T05:11:39;2.60;;;1.50;;
77322;SDS011;66384;51.052;9.850;2023-09-19T05:14:10;4.60;;;2.00;;
77322;SDS011;66384;51.052;9.850;2023-09-19T05:16:42;6.60;;;1.90;;
77322;SDS011;66384;51.052;9.850;2023-09-19T05:19:13;3.60;;;1.40;;
77322;SDS011;66384;51.052;9.850;2023-09-19T05:21:45;3.70;;;1.70;;
77322;SDS011;66384;51.052;9.850;2023-09-19T05:24:17;4.80;;;1.80;;
77322;SDS011;66384;51.052;9.850;2023-09-19T05:26:52;3.80;;;1.60;;
77322;SDS011;66384;51.052;9.850;2023-09-19T05:29:24;3.30;;;1.50;;
77322;SDS011;66384;51.052;9.850;2023-09-19T05:31:56;2.80;;;1.60;;
77322;SDS011;66384;51.052;9.850;2023-09-19T05:34:27;4.60;;;2.00;;
77322;SDS011;66384;51.052;9.850;2023-09-19T05:36:59;3.90;;;1.80;;
77322;SDS011;66384;51.052;9.850;2023-09-19T05:39:31;3.50;;;1.90;;
77322;SDS011;66384;51.052;9.850;2023-09-19T05:42:02;3.40;;;1.80;;
77322;SDS011;66384;51.052;9.850;2023-09-19T05:44:36;5.10;;;1.90;;
77322;SDS011;66384;51.052;9.850;2023-09-19T05:47:08;7.10;;;1.90;;
77322;SDS011;66384;51.052;9.850;2023-09-19T05:49:40;5.10;;;2.50;;
77322;SDS011;66384;51.052;9.850;2023-09-19T05:52:11;6.60;;;2.90;;
77322;SDS011;66384;51.052;9.850;2023-09-19T05:54:42;5.90;;;1.80;;
77322;SDS011;66384;51.052;9.850;2023-09-19T05:57:14;5.10;;;1.80;;
77322;SDS011;66384;51.052;9.850;2023-09-19T05:59:45;5.20;;;1.80;;
77322;SDS011;66384;51.052;9.850;2023-09-19T06:02:19;4.30;;;2.20;;
77322;SDS011;66384;51.052;9.850;2023-09-19T06:04:51;7.80;;;2.30;;
77322;SDS011;66384;51.052;9.850;2023-09-19T06:07:24;4.50;;;1.90;;
77322;SDS011;66384;51.052;9.850;2023-09-19T06:10:05;4.70;;;2.00;;
77322;SDS011;66384;51.052;9.850;2023-09-19T06:12:39;5.90;;;1.90;;
77322;SDS011;66384;51.052;9.850;2023-09-19T06:15:12;7.00;;;1.80;;
77322;SDS011;66384;51.052;9.850;2023-09-19T06:17:48;5.10;;;1.80;;
77322;SDS011;66384;51.052;9.850;2023-09-19T06:20:20;4.60;;;1.90;;
77322;SDS011;66384;51.052;9.850;2023-09-19T06:22:54;7.30;;;1.70;;
77322;SDS011;66384;51.052;9.850;2023-09-19T06:25:26;3.20;;;2.00;;
77322;SDS011;66384;51.052;9.850;2023-09-19T06:27:58;9.10;;;2.20;;
77322;SDS011;66384;51.052;9.850;2023-09-19T06:30:33;7.30;;;2.20;;
77322;SDS011;66384;51.052;9.850;2023-09-19T06:33:08;7.40;;;2.10;;
77322;SDS011;66384;51.052;9.850;2023-09-19T06:35:44;5.00;;;2.20;;
77322;SDS011;66384;51.052;9.850;2023-09-19T06:38:16;6.10;;;2.20;;
77322;SDS011;66384;51.052;9.850;2023-09-19T06:40:48;4.00;;;1.80;;
77322;SDS011;66384;51.052;9.850;2023-09-19T06:43:20;6.60;;;2.00;;
77322;SDS011;66384;51.052;9.850;2023-09-19T06:45:53;5.20;;;2.10;;
77322;SDS011;66384;51.052;9.850;2023-09-19T06:48:24;5.30;;;2.10;;
77322;SDS011;66384;51.052;9.850;2023-09-19T06:50:58;6.60;;;2.20;;
77322;SDS011;66384;51.052;9.850;2023-09-19T06:53:30;9.00;;;2.20;;
77322;SDS011;66384;51.052;9.850;2023-09-19T06:56:03;3.60;;;1.70;;
77322;SDS011;66384;51.052;9.850;2023-09-19T06:58:35;5.10;;;1.90;;
77322;SDS011;66384;51.052;9.850;2023-09-19T07:01:07;7.00;;;1.80;;
77322;SDS011;66384;51.052;9.850;2023-09-19T07:03:38;5.40;;;2.70;;
77322;SDS011;66384;51.052;9.850;2023-09-19T07:06:10;7.60;;;2.30;;
77322;SDS011;66384;51.052;9.850;2023-09-19T07:08:42;7.50;;;2.20;;
77322;SDS011;66384;51.052;9.850;2023-09-19T07:11:14;7.30;;;2.10;;
77322;SDS011;66384;51.052;9.850;2023-09-19T07:13:46;4.90;;;2.00;;
77322;SDS011;66384;51.052;9.850;2023-09-19T07:16:17;5.70;;;2.10;;
77322;SDS011;66384;51.052;9.850;2023-09-19T07:18:59;5.90;;;1.70;;
77322;SDS011;66384;51.052;9.850;2023-09-19T07:21:31;8.80;;;2.50;;
77322;SDS011;66384;51.052;9.850;2023-09-19T07:24:04;3.50;;;1.70;;
77322;SDS011;66384;51.052;9.850;2023-09-19T07:26:37;4.60;;;2.00;;
77322;SDS011;66384;51.052;9.850;2023-09-19T07:29:10;8.70;;;2.50;;
77322;SDS011;66384;51.052;9.850;2023-09-19T07:31:41;8.70;;;2.30;;
77322;SDS011;66384;51.052;9.850;2023-09-19T07:34:13;4.70;;;1.70;;
77322;SDS011;66384;51.052;9.850;2023-09-19T07:36:45;7.10;;;2.90;;
77322;SDS011;66384;51.052;9.850;2023-09-19T07:39:16;7.30;;;1.80;;
77322;SDS011;66384;51.052;9.850;2023-09-19T07:41:51;7.30;;;2.00;;
77322;SDS011;66384;51.052;9.850;2023-09-19T07:44:23;6.80;;;2.00;;
77322;SDS011;66384;51.052;9.850;2023-09-19T07:46:55;5.80;;;1.90;;
77322;SDS011;66384;51.052;9.850;2023-09-19T07:49:26;8.50;;;2.20;;
77322;SDS011;66384;51.052;9.850;2023-09-19T07:51:58;5.70;;;2.00;;
77322;SDS011;66384;51.052;9.850;2023-09-19T07:54:29;5.40;;;2.10;;
77322;SDS011;66384;51.052;9.850;2023-09-19T07:57:04;7.90;;;2.10;;
77322;SDS011;66384;51.052;9.850;2023-09-19T07:59:36;6.80;;;2.30;;
77322;SDS011;66384;51.052;9.850;2023-09-19T08:02:10;4.50;;;1.80;;
77322;SDS011;66384;51.052;9.850;2023-09-19T08:04:45;6.30;;;1.90;;
77322;SDS011;66384;51.052;9.850;2023-09-19T08:07:18;5.90;;;2.30;;
77322;SDS011;66384;51.052;9.850;2023-09-19T08:09:52;3.90;;;1.50;;
77322;SDS011;66384;51.052;9.850;2023-09-19T08:12:23;6.10;;;2.00;;
77322;SDS011;66384;51.052;9.850;2023-09-19T08:14:55;8.70;;;2.40;;
77322;SDS011;66384;51.052;9.850;2023-09-19T08:17:27;7.30;;;3.10;;
77322;SDS011;66384;51.052;9.850;2023-09-19T08:20:04;8.70;;;2.30;;
77322;SDS011;66384;51.052;9.850;2023-09-19T08:22:46;3.90;;;1.80;;
77322;SDS011;66384;51.052;9.850;2023-09-19T08:25:21;4.70;;;1.90;;
77322;SDS011;66384;51.052;9.850;2023-09-19T08:27:54;5.20;;;2.00;;
77322;SDS011;66384;51.052;9.850;2023-09-19T08:30:29;7.00;;;2.00;;
77322;SDS011;66384;51.052;9.850;2023-09-19T08:33:03;4.20;;;1.80;;
77322;SDS011;66384;51.052;9.850;2023-09-19T08:35:36;6.20;;;2.60;;
77322;SDS011;66384;51.052;9.850;2023-09-19T08:38:10;4.30;;;2.10;;
77322;SDS011;66384;51.052;9.850;2023-09-19T08:40:43;4.70;;;2.10;;
77322;SDS011;66384;51.052;9.850;2023-09-19T08:43:15;5.30;;;2.40;;
77322;SDS011;66384;51.052;9.850;2023-09-19T08:45:46;4.20;;;2.10;;
77322;SDS011;66384;51.052;9.850;2023-09-19T08:48:20;6.60;;;1.90;;
77322;SDS011;66384;51.052;9.850;2023-09-19T08:50:59;8.20;;;1.80;;
77322;SDS011;66384;51.052;9.850;2023-09-19T08:53:35;7.00;;;2.00;;
77322;SDS011;66384;51.052;9.850;2023-09-19T08:56:16;6.40;;;2.10;;
77322;SDS011;66384;51.052;9.850;2023-09-19T08:58:50;6.60;;;2.10;;
77322;SDS011;66384;51.052;9.850;2023-09-19T09:01:26;2.50;;;1.60;;
77322;SDS011;66384;51.052;9.850;2023-09-19T09:04:01;4.70;;;1.60;;
77322;SDS011;66384;51.052;9.850;2023-09-19T09:06:34;4.00;;;1.80;;
77322;SDS011;66384;51.052;9.850;2023-09-19T09:09:08;7.30;;;3.00;;
77322;SDS011;66384;51.052;9.850;2023-09-19T09:11:40;5.30;;;1.90;;
77322;SDS011;66384;51.052;9.850;2023-09-19T09:14:12;6.30;;;2.10;;
77322;SDS011;66384;51.052;9.850;2023-09-19T09:16:44;3.50;;;1.30;;
77322;SDS011;66384;51.052;9.850;2023-09-19T09:19:18;6.90;;;2.20;;
77322;SDS011;66384;51.052;9.850;2023-09-19T09:21:53;5.90;;;1.80;;
77322;SDS011;66384;51.052;9.850;2023-09-19T09:24:34;5.00;;;2.10;;
77322;SDS011;66384;51.052;9.850;2023-09-19T09:27:08;8.30;;;3.40;;
77322;SDS011;66384;51.052;9.850;2023-09-19T09:29:44;5.10;;;2.40;;
77322;SDS011;66384;51.052;9.850;2023-09-19T09:32:19;6.60;;;3.70;;
77322;SDS011;66384;51.052;9.850;2023-09-19T09:34:52;6.80;;;1.90;;
77322;SDS011;66384;51.052;9.850;2023-09-19T09:37:29;3.40;;;2.10;;
77322;SDS011;66384;51.052;9.850;2023-09-19T09:40:01;9.20;;;3.20;;
77322;SDS011;66384;51.052;9.850;2023-09-19T09:42:48;5.70;;;2.20;;
77322;SDS011;66384;51.052;9.850;2023-09-19T09:45:22;6.70;;;2.70;;
77322;SDS011;66384;51.052;9.850;2023-09-19T09:48:06;8.00;;;3.60;;
77322;SDS011;66384;51.052;9.850;2023-09-19T09:50:47;10.20;;;4.20;;
77322;SDS011;66384;51.052;9.850;2023-09-19T09:53:25;4.80;;;2.40;;
77322;SDS011;66384;51.052;9.850;2023-09-19T09:55:59;5.40;;;2.60;;
77322;SDS011;66384;51.052;9.850;2023-09-19T09:58:35;7.10;;;3.00;;
77322;SDS011;66384;51.052;9.850;2023-09-19T10:01:09;6.50;;;2.60;;
77322;SDS011;66384;51.052;9.850;2023-09-19T10:03:44;6.60;;;2.60;;
77322;SDS011;66384;51.052;9.850;2023-09-19T10:06:17;3.40;;;1.70;;
77322;SDS011;66384;51.052;9.850;2023-09-19T10:09:00;6.70;;;2.10;;
77322;SDS011;66384;51.052;9.850;2023-09-19T10:11:44;4.80;;;2.10;;
77322;SDS011;66384;51.052;9.850;2023-09-19T10:14:17;5.90;;;3.00;;
77322;SDS011;66384;51.052;9.850;2023-09-19T10:16:52;5.50;;;2.20;;
77322;SDS011;66384;51.052;9.850;2023-09-19T10:19:30;6.80;;;2.50;;
77322;SDS011;66384;51.052;9.850;2023-09-19T10:22:06;6.00;;;2.40;;
77322;SDS011;66384;51.052;9.850;2023-09-19T10:24:40;3.60;;;2.00;;
77322;SDS011;66384;51.052;9.850;2023-09-19T10:27:30;4.20;;;2.10;;
77322;SDS011;66384;51.052;9.850;2023-09-19T10:30:07;8.00;;;2.60;;
77322;SDS011;66384;51.052;9.850;2023-09-19T10:32:40;4.90;;;2.80;;
77322;SDS011;66384;51.052;9.850;2023-09-19T10:35:15;6.20;;;2.00;;
77322;SDS011;66384;51.052;9.850;2023-09-19T10:37:48;5.50;;;1.90;;
77322;SDS011;66384;51.052;9.850;2023-09-19T10:40:23;3.50;;;2.20;;
77322;SDS011;66384;51.052;9.850;2023-09-19T10:43:01;6.90;;;2.20;;
77322;SDS011;66384;51.052;9.850;2023-09-19T10:45:35;8.50;;;2.50;;
77322;SDS011;66384;51.052;9.850;2023-09-19T10:48:08;5.00;;;2.30;;
77322;SDS011;66384;51.052;9.850;2023-09-19T10:50:45;5.60;;;2.80;;
77322;SDS011;66384;51.052;9.850;2023-09-19T10:53:19;6.60;;;2.30;;
77322;SDS011;66384;51.052;9.850;2023-09-19T10:55:53;4.70;;;2.40;;
77322;SDS011;66384;51.052;9.850;2023-09-19T10:58:31;5.10;;;2.50;;
77322;SDS011;66384;51.052;9.850;2023-09-19T11:01:07;5.20;;;2.30;;
77322;SDS011;66384;51.052;9.850;2023-09-19T11:03:41;9.40;;;2.10;;
77322;SDS011;66384;51.052;9.850;2023-09-19T11:06:14;4.70;;;2.20;;
77322;SDS011;66384;51.052;9.850;2023-09-19T11:11:50;4.90;;;2.30;;
77322;SDS011;66384;51.052;9.850;2023-09-19T11:20:25;5.80;;;2.30;;
77322;SDS011;66384;51.052;9.850;2023-09-19T11:23:20;4.40;;;1.70;;
77322;SDS011;66384;51.052;9.850;2023-09-19T11:25:54;6.10;;;2.00;;
77322;SDS011;66384;51.052;9.850;2023-09-19T11:28:29;4.10;;;1.80;;
77322;SDS011;66384;51.052;9.850;2023-09-19T11:40:39;11.30;;;2.50;;
77322;SDS011;66384;51.052;9.850;2023-09-19T11:43:31;10.00;;;2.60;;
77322;SDS011;66384;51.052;9.850;2023-09-19T11:46:09;5.80;;;1.90;;
77322;SDS011;66384;51.052;9.850;2023-09-19T11:48:45;6.30;;;2.40;;
77322;SDS011;66384;51.052;9.850;2023-09-19T11:51:19;12.60;;;3.50;;
77322;SDS011;66384;51.052;9.850;2023-09-19T11:53:53;4.40;;;2.40;;
77322;SDS011;66384;51.052;9.850;2023-09-19T11:56:26;11.90;;;5.00;;
77322;SDS011;66384;51.052;9.850;2023-09-19T11:59:00;8.10;;;2.20;;
77322;SDS011;66384;51.052;9.850;2023-09-19T12:01:32;10.60;;;3.10;;
77322;SDS011;66384;51.052;9.850;2023-09-19T12:04:05;10.70;;;2.90;;
77322;SDS011;66384;51.052;9.850;2023-09-19T12:06:38;4.90;;;2.20;;
77322;SDS011;66384;51.052;9.850;2023-09-19T12:09:13;9.90;;;3.10;;
77322;SDS011;66384;51.052;9.850;2023-09-19T12:11:45;8.00;;;3.30;;
77322;SDS011;66384;51.052;9.850;2023-09-19T12:14:24;10.00;;;3.30;;
77322;SDS011;66384;51.052;9.850;2023-09-19T12:16:56;8.60;;;2.30;;
77322;SDS011;66384;51.052;9.850;2023-09-19T12:19:30;7.50;;;2.40;;
77322;SDS011;66384;51.052;9.850;2023-09-19T12:22:03;6.30;;;2.30;;
77322;SDS011;66384;51.052;9.850;2023-09-19T12:24:34;10.10;;;2.50;;
77322;SDS011;66384;51.052;9.850;2023-09-19T12:27:11;6.90;;;2.20;;
77322;SDS011;66384;51.052;9.850;2023-09-19T12:29:43;5.60;;;2.00;;
77322;SDS011;66384;51.052;9.850;2023-09-19T12:32:17;5.40;;;1.70;;
77322;SDS011;66384;51.052;9.850;2023-09-19T12:35:04;5.90;;;2.50;;
77322;SDS011;66384;51.052;9.850;2023-09-19T12:37:43;6.70;;;1.80;;
77322;SDS011;66384;51.052;9.850;2023-09-19T12:40:22;6.40;;;2.60;;
77322;SDS011;66384;51.052;9.850;2023-09-19T12:42:59;6.20;;;2.30;;
77322;SDS011;66384;51.052;9.850;2023-09-19T12:45:32;6.30;;;2.50;;
77322;SDS011;66384;51.052;9.850;2023-09-19T12:48:18;4.10;;;2.10;;
77322;SDS011;66384;51.052;9.850;2023-09-19T12:51:05;5.20;;;2.30;;
77322;SDS011;66384;51.052;9.850;2023-09-19T12:53:39;5.30;;;1.90;;
77322;SDS011;66384;51.052;9.850;2023-09-19T12:56:15;5.30;;;2.20;;
77322;SDS011;66384;51.052;9.850;2023-09-19T12:58:51;5.50;;;2.50;;
77322;SDS011;66384;51.052;9.850;2023-09-19T13:01:24;5.70;;;2.30;;
77322;SDS011;66384;51.052;9.850;2023-09-19T13:04:14;6.10;;;2.80;;
77322;SDS011;66384;51.052;9.850;2023-09-19T13:06:55;3.90;;;1.90;;
77322;SDS011;66384;51.052;9.850;2023-09-19T13:09:30;4.10;;;1.90;;
77322;SDS011;66384;51.052;9.850;2023-09-19T13:12:05;5.20;;;2.20;;
77322;SDS011;66384;51.052;9.850;2023-09-19T13:17:46;5.20;;;1.90;;
77322;SDS011;66384;51.052;9.850;2023-09-19T13:20:22;4.80;;;2.40;;
77322;SDS011;66384;51.052;9.850;2023-09-19T13:22:56;5.70;;;2.60;;
77322;SDS011;66384;51.052;9.850;2023-09-19T13:25:29;6.20;;;2.70;;
77322;SDS011;66384;51.052;9.850;2023-09-19T13:28:02;7.60;;;3.50;;
77322;SDS011;66384;51.052;9.850;2023-09-19T13:30:37;7.50;;;3.20;;
77322;SDS011;66384;51.052;9.850;2023-09-19T13:33:11;6.20;;;2.50;;
77322;SDS011;66384;51.052;9.850;2023-09-19T13:35:50;6.30;;;3.00;;
77322;SDS011;66384;51.052;9.850;2023-09-19T13:38:22;5.50;;;2.60;;
77322;SDS011;66384;51.052;9.850;2023-09-19T13:40:54;5.60;;;2.50;;
77322;SDS011;66384;51.052;9.850;2023-09-19T13:43:25;8.80;;;2.40;;
77322;SDS011;66384;51.052;9.850;2023-09-19T13:45:57;7.20;;;2.50;;
77322;SDS011;66384;51.052;9.850;2023-09-19T13:48:29;4.50;;;2.30;;
77322;SDS011;66384;51.052;9.850;2023-09-19T13:51:03;6.20;;;2.40;;
77322;SDS011;66384;51.052;9.850;2023-09-19T13:53:36;6.10;;;2.70;;
77322;SDS011;66384;51.052;9.850;2023-09-19T13:56:08;5.40;;;2.50;;
77322;SDS011;66384;51.052;9.850;2023-09-19T13:58:40;7.60;;;2.50;;
77322;SDS011;66384;51.052;9.850;2023-09-19T14:01:11;4.90;;;2.30;;
77322;SDS011;66384;51.052;9.850;2023-09-19T14:03:43;6.60;;;2.30;;
77322;SDS011;66384;51.052;9.850;2023-09-19T14:06:16;7.60;;;2.50;;
77322;SDS011;66384;51.052;9.850;2023-09-19T14:08:47;10.70;;;4.40;;
77322;SDS011;66384;51.052;9.850;2023-09-19T14:11:19;5.20;;;2.50;;
77322;SDS011;66384;51.052;9.850;2023-09-19T14:13:51;4.80;;;2.50;;
77322;SDS011;66384;51.052;9.850;2023-09-19T14:16:25;6.70;;;2.20;;
77322;SDS011;66384;51.052;9.850;2023-09-19T14:19:00;8.60;;;2.50;;
77322;SDS011;66384;51.052;9.850;2023-09-19T14:21:31;7.40;;;2.40;;
77322;SDS011;66384;51.052;9.850;2023-09-19T14:24:05;6.70;;;2.40;;
77322;SDS011;66384;51.052;9.850;2023-09-19T14:26:38;6.70;;;2.70;;
77322;SDS011;66384;51.052;9.850;2023-09-19T14:29:10;10.90;;;3.10;;
77322;SDS011;66384;51.052;9.850;2023-09-19T14:31:42;6.90;;;2.30;;
77322;SDS011;66384;51.052;9.850;2023-09-19T14:34:14;6.50;;;2.40;;
77322;SDS011;66384;51.052;9.850;2023-09-19T14:36:45;6.90;;;2.60;;
77322;SDS011;66384;51.052;9.850;2023-09-19T14:39:17;7.60;;;2.50;;
77322;SDS011;66384;51.052;9.850;2023-09-19T14:41:49;6.00;;;2.80;;
77322;SDS011;66384;51.052;9.850;2023-09-19T14:44:22;7.10;;;2.70;;
77322;SDS011;66384;51.052;9.850;2023-09-19T14:46:54;6.00;;;3.00;;
77322;SDS011;66384;51.052;9.850;2023-09-19T14:49:25;10.20;;;2.80;;
77322;SDS011;66384;51.052;9.850;2023-09-19T14:51:57;9.00;;;3.00;;
77322;SDS011;66384;51.052;9.850;2023-09-19T14:54:29;16.80;;;4.60;;
77322;SDS011;66384;51.052;9.850;2023-09-19T14:57:00;8.60;;;3.20;;
77322;SDS011;66384;51.052;9.850;2023-09-19T14:59:33;6.80;;;2.60;;
77322;SDS011;66384;51.052;9.850;2023-09-19T15:02:06;8.80;;;3.50;;
77322;SDS011;66384;51.052;9.850;2023-09-19T15:04:38;8.20;;;2.70;;
77322;SDS011;66384;51.052;9.850;2023-09-19T15:07:10;5.40;;;2.60;;
77322;SDS011;66384;51.052;9.850;2023-09-19T15:09:42;5.30;;;2.00;;
77322;SDS011;66384;51.052;9.850;2023-09-19T15:12:14;9.40;;;2.70;;
77322;SDS011;66384;51.052;9.850;2023-09-19T15:14:46;7.60;;;2.90;;
77322;SDS011;66384;51.052;9.850;2023-09-19T15:17:17;8.90;;;2.60;;
77322;SDS011;66384;51.052;9.850;2023-09-19T15:19:50;6.30;;;2.40;;
77322;SDS011;66384;51.052;9.850;2023-09-19T15:22:22;7.00;;;3.30;;
77322;SDS011;66384;51.052;9.850;2023-09-19T15:24:55;8.90;;;3.80;;
77322;SDS011;66384;51.052;9.850;2023-09-19T15:27:27;12.50;;;5.20;;
77322;SDS011;66384;51.052;9.850;2023-09-19T15:30:00;8.80;;;4.20;;
77322;SDS011;66384;51.052;9.850;2023-09-19T15:32:34;7.80;;;3.50;;
77322;SDS011;66384;51.052;9.850;2023-09-19T15:35:06;7.10;;;3.80;;
77322;SDS011;66384;51.052;9.850;2023-09-19T15:37:40;6.30;;;3.30;;
77322;SDS011;66384;51.052;9.850;2023-09-19T15:40:12;7.30;;;4.10;;
77322;SDS011;66384;51.052;9.850;2023-09-19T15:42:44;7.00;;;4.60;;
77322;SDS011;66384;51.052;9.850;2023-09-19T15:45:16;7.40;;;3.20;;
77322;SDS011;66384;51.052;9.850;2023-09-19T15:47:47;7.80;;;2.80;;
77322;SDS011;66384;51.052;9.850;2023-09-19T15:50:19;7.80;;;2.90;;